Atwood, Colorado
Current Conditions -  °F | °C
As of 5:50 AM on Friday 19 Dec 2014 (Local Time) from KSTK Reporting Station
Haze Haze  
Wind Chill:   Ceiling: Unl
Heat Index: 10°   Visibility: 5mi
Dew Point:   Wind: 6mph
Humidity: 92%   Direction: 200°SSW
Pressure: 30.09"   Gusts: NA
Location:  40.55°N, 103.27°W
Report Text: KSTK 191250Z AUTO 20005KT 5SM BR CLR M12/M13 A3009 RMK AO2
Loading
Personal Weather Stations






























Interactive Weather Map New forecast layout! Learn more

10-Day Weather Forecast

Advertisements
Track Severe Weather on mobile